Time;durP1;ratioP1;P1;durP2;ratioP2;P2;SDS_P1;SDS_P2;PMS_P1;PMS_P2;Temp;Humidity;BMP_temperature;BMP_pressure;BME280_temperature;BME280_humidity;BME280_pressure;Samples;Min_cycle;Max_cycle;Signal;HPM_P1;HPM_P2
2021/06/28 00:01:11;;;;;;;3.42;3.10;;;19.00;81.60;;;;;;5022214;28;20046;-75
2021/06/28 00:03:38;;;;;;;3.90;3.50;;;19.00;81.90;;;;;;5028298;28;20065;-75
2021/06/28 00:06:04;;;;;;;3.08;2.78;;;18.90;81.80;;;;;;5026889;28;20028;-75
2021/06/28 00:08:30;;;;;;;4.43;3.10;;;19.00;81.50;;;;;;5026968;28;20505;-75
2021/06/28 00:10:56;;;;;;;4.57;3.35;;;19.00;81.60;;;;;;5025589;28;20057;-75
2021/06/28 00:13:22;;;;;;;4.07;3.40;;;18.90;81.80;;;;;;5021847;28;20058;-75
2021/06/28 00:15:48;;;;;;;3.50;3.20;;;18.90;81.60;;;;;;5020487;28;20025;-76
2021/06/28 00:18:15;;;;;;;4.93;3.40;;;18.90;81.40;;;;;;5024576;28;20627;-75
2021/06/28 00:20:41;;;;;;;3.85;3.55;;;19.00;82.10;;;;;;5025252;28;20424;-75
2021/06/28 00:23:07;;;;;;;3.67;3.28;;;18.80;82.30;;;;;;5022054;28;20037;-76
2021/06/28 00:25:34;;;;;;;5.93;3.92;;;18.90;82.10;;;;;;5021179;28;20037;-75
2021/06/28 00:28:00;;;;;;;4.22;3.55;;;18.90;81.90;;;;;;5016842;28;22015;-76
2021/06/28 00:30:27;;;;;;;4.30;3.55;;;19.00;81.50;;;;;;5019945;28;20040;-75
2021/06/28 00:32:53;;;;;;;3.53;3.22;;;18.90;81.80;;;;;;5019363;28;20048;-75
2021/06/28 00:35:20;;;;;;;3.83;3.30;;;18.90;82.00;;;;;;5016027;28;20029;-75
2021/06/28 00:37:47;;;;;;;4.72;3.60;;;18.80;82.30;;;;;;5024995;28;20034;-75
2021/06/28 00:40:14;;;;;;;4.22;3.45;;;18.70;82.50;;;;;;5024802;28;20063;-75
2021/06/28 00:42:40;;;;;;;6.10;3.77;;;18.80;83.20;;;;;;5023263;28;20619;-75
2021/06/28 00:45:15;;;;;;;4.10;3.65;;;18.70;82.80;;;;;;5025203;28;20032;-75
2021/06/28 00:47:41;;;;;;;3.90;3.60;;;18.70;83.00;;;;;;5021374;28;20026;-75
2021/06/28 00:50:07;;;;;;;5.35;3.03;;;18.70;83.10;;;;;;5023510;28;20064;-75
2021/06/28 00:52:33;;;;;;;5.80;3.45;;;18.60;83.50;;;;;;5029816;28;20038;-75
2021/06/28 00:54:59;;;;;;;3.78;3.28;;;18.60;83.90;;;;;;5024651;28;20048;-76
2021/06/28 00:57:25;;;;;;;4.93;3.30;;;18.50;84.10;;;;;;5025118;28;20576;-75
2021/06/28 00:59:51;;;;;;;3.83;3.40;;;18.60;84.10;;;;;;5024326;28;20067;-75
2021/06/28 01:02:16;;;;;;;4.10;3.42;;;18.60;83.80;;;;;;5026191;28;20444;-74
2021/06/28 01:04:42;;;;;;;5.72;3.42;;;18.70;84.00;;;;;;5021659;28;20045;-74
2021/06/28 01:07:08;;;;;;;4.22;3.67;;;18.50;84.40;;;;;;5016942;28;20038;-75
2021/06/28 01:09:33;;;;;;;4.43;3.50;;;18.50;85.50;;;;;;5017322;28;20090;-75
2021/06/28 01:11:59;;;;;;;4.53;3.60;;;18.50;84.90;;;;;;5014347;28;20026;-75
2021/06/28 01:14:25;;;;;;;3.63;3.33;;;18.50;84.80;;;;;;5019816;28;21639;-75
2021/06/28 01:16:52;;;;;;;4.45;3.60;;;18.50;84.40;;;;;;5018018;28;20029;-75
2021/06/28 01:19:22;;;;;;;4.65;3.47;;;18.60;84.00;;;;;;5018060;28;20032;-74
2021/06/28 01:21:52;;;;;;;3.97;3.58;;;18.60;84.20;;;;;;5025209;28;20508;-74
2021/06/28 01:24:18;;;;;;;4.22;3.70;;;18.50;84.10;;;;;;5025798;28;20079;-74
2021/06/28 01:26:44;;;;;;;4.90;3.75;;;18.60;84.10;;;;;;5019109;28;20037;-75
2021/06/28 01:29:10;;;;;;;4.70;3.70;;;18.60;83.80;;;;;;5025647;28;20029;-75
2021/06/28 01:31:35;;;;;;;3.92;3.53;;;18.60;83.80;;;;;;5021136;28;20512;-75
2021/06/28 01:34:01;;;;;;;4.25;3.80;;;18.70;83.60;;;;;;5027418;28;20518;-74
2021/06/28 01:36:27;;;;;;;4.97;3.42;;;18.60;83.50;;;;;;5028067;28;20096;-75
2021/06/28 01:38:53;;;;;;;4.10;3.63;;;18.70;83.60;;;;;;5020301;28;20037;-75
2021/06/28 01:41:18;;;;;;;4.30;3.67;;;18.70;83.10;;;;;;5022198;28;20140;-74
2021/06/28 01:43:45;;;;;;;4.10;3.70;;;18.70;84.10;;;;;;5015115;28;20841;-74
2021/06/28 01:46:10;;;;;;;4.63;3.70;;;18.60;83.90;;;;;;5015506;28;20601;-75
2021/06/28 01:48:37;;;;;;;6.03;3.67;;;18.60;84.10;;;;;;5013891;28;20120;-75
2021/06/28 01:51:04;;;;;;;3.88;3.53;;;18.60;83.80;;;;;;5021648;28;20103;-74
2021/06/28 01:53:30;;;;;;;5.63;4.00;;;18.70;84.00;;;;;;5027654;28;20033;-75
2021/06/28 01:55:56;;;;;;;4.38;3.97;;;18.70;83.90;;;;;;5026636;28;20044;-75
2021/06/28 01:58:21;;;;;;;5.55;3.55;;;18.70;83.70;;;;;;5020747;28;20477;-74
2021/06/28 02:00:50;;;;;;;5.32;3.58;;;18.60;83.90;;;;;;5014524;28;20386;-75
2021/06/28 02:03:18;;;;;;;3.67;3.38;;;18.70;83.50;;;;;;5024734;28;20068;-75
2021/06/28 02:05:44;;;;;;;;;;;18.70;84.90;;;;;;5025584;28;20373;-75
2021/06/28 02:08:12;;;;;;;5.22;3.30;;;18.60;84.00;;;;;;5022429;28;19916;-76
2021/06/28 02:10:40;;;;;;;3.95;3.40;;;18.70;83.50;;;;;;5021724;28;20040;-75
2021/06/28 02:13:06;;;;;;;3.50;3.20;;;18.60;83.60;;;;;;5021599;28;20496;-75
2021/06/28 02:15:33;;;;;;;4.70;4.00;;;18.60;83.40;;;;;;5026787;28;20083;-75
2021/06/28 02:17:59;;;;;;;4.18;3.75;;;18.50;84.00;;;;;;5020756;28;20077;-75
2021/06/28 02:20:26;;;;;;;4.88;3.70;;;18.40;84.50;;;;;;5022539;28;20021;-75
2021/06/28 02:22:53;;;;;;;4.20;3.80;;;18.40;84.00;;;;;;5025188;28;20059;-76
2021/06/28 02:25:19;;;;;;;5.10;3.58;;;18.40;84.20;;;;;;5027449;28;20029;-74
2021/06/28 02:27:45;;;;;;;3.95;3.55;;;18.40;83.80;;;;;;5021239;28;20384;-75
2021/06/28 02:30:14;;;;;;;3.78;3.13;;;18.40;83.00;;;;;;5023785;28;20018;-75
2021/06/28 02:32:41;;;;;;;3.63;3.33;;;18.30;83.50;;;;;;5019858;28;20091;-75
2021/06/28 02:35:09;;;;;;;4.43;4.03;;;18.30;83.80;;;;;;5023438;28;20032;-75
2021/06/28 02:37:36;;;;;;;5.57;3.40;;;18.20;84.20;;;;;;5023872;28;20498;-75
2021/06/28 02:40:05;;;;;;;4.53;3.38;;;18.20;84.00;;;;;;5022656;28;20037;-74
2021/06/28 02:42:31;;;;;;;4.28;3.38;;;18.20;83.80;;;;;;5024810;28;20025;-74
2021/06/28 02:44:57;;;;;;;3.92;3.50;;;18.20;83.70;;;;;;5024189;28;20045;-76
2021/06/28 02:47:22;;;;;;;4.63;4.20;;;18.20;83.60;;;;;;5025125;28;20018;-75
2021/06/28 02:49:48;;;;;;;6.47;3.85;;;18.20;84.70;;;;;;5023872;28;20056;-73
2021/06/28 02:52:13;;;;;;;4.10;3.70;;;18.10;84.30;;;;;;5023988;28;20038;-75
2021/06/28 02:54:39;;;;;;;5.72;3.50;;;18.10;84.40;;;;;;5023515;28;20029;-75
2021/06/28 02:57:05;;;;;;;4.57;4.03;;;18.10;85.30;;;;;;5024714;28;20030;-74
2021/06/28 02:59:31;;;;;;;4.97;4.05;;;18.00;85.50;;;;;;5025842;28;20040;-74
2021/06/28 03:01:56;;;;;;;8.70;3.78;;;18.00;85.00;;;;;;5030037;28;20041;-75
2021/06/28 03:04:22;;;;;;;3.83;3.42;;;18.00;84.90;;;;;;5028605;28;21128;-75
2021/06/28 03:06:47;;;;;;;4.13;3.70;;;18.10;85.20;;;;;;5031316;28;20028;-75
2021/06/28 03:09:13;;;;;;;4.82;3.60;;;18.00;85.10;;;;;;5024405;28;20408;-74
2021/06/28 03:11:39;;;;;;;5.70;3.78;;;18.00;85.60;;;;;;5026851;28;20103;-76
2021/06/28 03:14:04;;;;;;;3.90;3.60;;;18.00;85.50;;;;;;5026005;28;20030;-75
2021/06/28 03:16:30;;;;;;;5.50;3.78;;;18.00;85.20;;;;;;5025015;28;20034;-75
2021/06/28 03:18:56;;;;;;;4.60;3.47;;;18.00;85.40;;;;;;5024254;28;20028;-74
2021/06/28 03:21:21;;;;;;;8.07;3.83;;;18.00;85.30;;;;;;5019467;28;20499;-75
2021/06/28 03:23:47;;;;;;;6.60;3.58;;;18.00;85.70;;;;;;5025592;28;20037;-74
2021/06/28 03:26:13;;;;;;;4.68;3.72;;;18.00;85.80;;;;;;5026049;28;20134;-74
2021/06/28 03:28:39;;;;;;;4.63;4.20;;;18.00;85.90;;;;;;5023227;28;20026;-74
2021/06/28 03:31:07;;;;;;;7.30;3.90;;;18.00;86.20;;;;;;5030280;28;20057;-75
2021/06/28 03:33:33;;;;;;;4.30;3.80;;;18.00;85.80;;;;;;5023958;28;20029;-75
2021/06/28 03:35:59;;;;;;;4.25;3.70;;;18.00;85.60;;;;;;5024861;28;20026;-75
2021/06/28 03:38:24;;;;;;;4.45;3.90;;;18.00;86.10;;;;;;5023547;28;20511;-75
2021/06/28 03:40:50;;;;;;;5.47;3.80;;;18.00;86.50;;;;;;5017012;28;20404;-74
2021/06/28 03:43:16;;;;;;;8.38;4.18;;;18.00;86.70;;;;;;5019865;28;20037;-75
2021/06/28 03:45:42;;;;;;;6.90;4.35;;;18.00;86.40;;;;;;5025022;28;20025;-75
2021/06/28 03:48:09;;;;;;;6.15;4.72;;;18.00;86.50;;;;;;5024612;28;20052;-75
2021/06/28 03:50:36;;;;;;;6.63;4.07;;;18.10;86.50;;;;;;5018656;28;20026;-75
2021/06/28 03:53:02;;;;;;;4.80;4.15;;;18.10;86.30;;;;;;5025617;28;20029;-75
2021/06/28 03:55:28;;;;;;;4.72;3.72;;;18.10;86.20;;;;;;5024002;28;20029;-75
2021/06/28 03:57:53;;;;;;;4.95;3.90;;;18.10;86.00;;;;;;5028141;28;20144;-75
2021/06/28 04:00:22;;;;;;;5.93;3.97;;;18.10;85.90;;;;;;5023409;28;20416;-76
2021/06/28 04:02:49;;;;;;;4.28;3.70;;;18.20;85.60;;;;;;5028483;28;20029;-75
2021/06/28 04:05:22;;;;;;;3.90;3.50;;;18.20;85.60;;;;;;5031305;28;20025;-75
2021/06/28 04:07:49;;;;;;;3.78;3.40;;;18.10;85.50;;;;;;5027495;28;20455;-75
2021/06/28 04:10:18;;;;;;;3.88;3.45;;;18.10;85.60;;;;;;5028142;28;20064;-75
2021/06/28 04:12:45;;;;;;;3.60;3.30;;;18.10;86.20;;;;;;5023249;28;20036;-75
2021/06/28 04:15:12;;;;;;;4.30;3.55;;;18.00;86.60;;;;;;5022140;28;20041;-76
2021/06/28 04:17:39;;;;;;;7.30;3.60;;;18.20;86.30;;;;;;5023372;28;20040;-75
2021/06/28 04:20:10;;;;;;;5.50;3.97;;;18.20;86.10;;;;;;5025347;28;20025;-75
2021/06/28 04:22:37;;;;;;;6.63;4.60;;;18.20;86.50;;;;;;5026559;28;20041;-75
2021/06/28 04:25:05;;;;;;;4.63;4.10;;;18.20;86.90;;;;;;5024247;28;20497;-75
2021/06/28 04:27:31;;;;;;;4.30;3.90;;;18.10;87.30;;;;;;5024497;28;21019;-75
2021/06/28 04:29:57;;;;;;;5.45;4.00;;;18.20;86.80;;;;;;5024857;28;20064;-76
2021/06/28 04:32:22;;;;;;;5.47;3.92;;;18.20;86.80;;;;;;5016582;28;20065;-76
2021/06/28 04:34:48;;;;;;;5.43;4.05;;;18.20;86.70;;;;;;5017950;28;20175;-75
2021/06/28 04:37:14;;;;;;;5.22;3.60;;;18.30;86.30;;;;;;5023209;28;20021;-77
2021/06/28 04:39:40;;;;;;;4.13;3.72;;;18.30;86.30;;;;;;5018486;28;20037;-76
2021/06/28 04:42:07;;;;;;;4.95;3.85;;;18.30;86.70;;;;;;5019747;28;20018;-76
2021/06/28 04:44:33;;;;;;;5.60;3.97;;;18.30;87.30;;;;;;5028104;28;20064;-76
2021/06/28 04:46:58;;;;;;;4.72;3.50;;;18.20;86.30;;;;;;5015044;28;20033;-75
2021/06/28 04:49:24;;;;;;;8.15;4.28;;;18.30;86.00;;;;;;5015614;28;20030;-76
2021/06/28 04:51:50;;;;;;;4.93;3.53;;;18.30;85.90;;;;;;5023329;28;20044;-75
2021/06/28 04:54:16;;;;;;;4.70;3.85;;;18.30;86.20;;;;;;5016985;28;20017;-75
2021/06/28 04:56:41;;;;;;;5.18;4.03;;;18.30;85.80;;;;;;5021468;28;20091;-75
2021/06/28 04:59:07;;;;;;;5.35;3.83;;;18.40;86.00;;;;;;5025644;28;20036;-75
2021/06/28 05:01:33;;;;;;;4.95;4.28;;;18.50;86.30;;;;;;5020660;28;20041;-75
2021/06/28 05:03:58;;;;;;;4.80;4.40;;;18.50;86.50;;;;;;5023714;28;20041;-75
2021/06/28 05:06:24;;;;;;;5.22;4.38;;;18.60;87.80;;;;;;5025191;28;20032;-76
2021/06/28 05:08:50;;;;;;;4.68;3.90;;;18.60;88.00;;;;;;5019974;28;20472;-75
2021/06/28 05:11:15;;;;;;;7.22;4.63;;;18.70;88.40;;;;;;5018487;28;20064;-75
2021/06/28 05:13:41;;;;;;;5.68;4.22;;;18.80;88.00;;;;;;5022233;28;20025;-76
2021/06/28 05:16:07;;;;;;;4.60;4.10;;;18.90;86.70;;;;;;5015855;28;20374;-75
2021/06/28 05:18:32;;;;;;;6.85;4.30;;;19.10;85.20;;;;;;5023200;28;20116;-75
2021/06/28 05:20:58;;;;;;;7.30;4.03;;;19.20;84.60;;;;;;5021795;28;20100;-76
2021/06/28 05:23:23;;;;;;;4.72;3.88;;;19.30;84.70;;;;;;5025566;28;20381;-75
2021/06/28 05:25:49;;;;;;;6.15;4.55;;;19.40;83.70;;;;;;5023061;28;20097;-75
2021/06/28 05:28:15;;;;;;;5.70;4.55;;;19.50;83.60;;;;;;5018945;28;20038;-75
2021/06/28 05:30:41;;;;;;;5.55;4.55;;;19.60;84.20;;;;;;5017442;28;20137;-75
2021/06/28 05:33:07;;;;;;;6.13;4.25;;;19.60;84.50;;;;;;5012643;28;20129;-76
2021/06/28 05:35:33;;;;;;;5.80;5.00;;;19.70;82.60;;;;;;5018818;28;20029;-76
2021/06/28 05:37:58;;;;;;;5.32;4.50;;;19.80;83.20;;;;;;5023387;28;20057;-76
2021/06/28 05:40:24;;;;;;;6.25;5.65;;;19.80;82.40;;;;;;5017580;28;20040;-75
2021/06/28 05:42:50;;;;;;;6.00;5.32;;;19.90;82.10;;;;;;5019914;28;20041;-75
2021/06/28 05:45:15;;;;;;;6.13;4.97;;;19.90;82.40;;;;;;5020791;28;20802;-74
2021/06/28 05:47:42;;;;;;;5.25;4.30;;;20.10;83.00;;;;;;5022412;28;20048;-76
2021/06/28 05:50:11;;;;;;;5.35;4.03;;;20.10;82.50;;;;;;5020060;28;20077;-75
2021/06/28 05:52:37;;;;;;;5.25;4.20;;;20.30;82.10;;;;;;5026028;28;20048;-75
2021/06/28 05:55:03;;;;;;;4.32;3.92;;;20.40;81.10;;;;;;5025422;28;20493;-76
2021/06/28 05:57:29;;;;;;;4.07;3.65;;;20.40;80.10;;;;;;5019492;28;20033;-75
2021/06/28 05:59:55;;;;;;;6.95;4.32;;;20.60;80.90;;;;;;5025934;28;20553;-76
2021/06/28 06:02:21;;;;;;;4.75;4.25;;;20.70;79.10;;;;;;5019602;28;20127;-75
2021/06/28 06:04:47;;;;;;;6.13;4.20;;;20.80;78.80;;;;;;5022737;28;20103;-76
2021/06/28 06:07:13;;;;;;;4.32;3.90;;;20.80;78.40;;;;;;5018326;28;20289;-76
2021/06/28 06:09:39;;;;;;;4.53;3.80;;;21.00;78.30;;;;;;5022700;28;20108;-75
2021/06/28 06:12:05;;;;;;;4.82;4.35;;;21.00;77.20;;;;;;5021438;28;20120;-75
2021/06/28 06:14:32;;;;;;;6.05;4.45;;;21.10;75.90;;;;;;5018875;28;20091;-75
2021/06/28 06:16:58;;;;;;;5.57;4.38;;;21.20;76.10;;;;;;5011319;28;20026;-76
2021/06/28 06:19:23;;;;;;;6.20;4.45;;;21.20;76.80;;;;;;5015982;28;20026;-76
2021/06/28 06:21:50;;;;;;;6.93;4.60;;;21.30;78.90;;;;;;5026754;28;20394;-75
2021/06/28 06:24:16;;;;;;;7.55;4.13;;;21.40;77.70;;;;;;5019366;28;20025;-75
2021/06/28 06:26:42;;;;;;;5.55;4.32;;;21.50;77.80;;;;;;5020917;28;20026;-76
2021/06/28 06:29:08;;;;;;;6.13;4.70;;;21.60;77.70;;;;;;5024486;28;20370;-76
2021/06/28 06:31:33;;;;;;;5.85;4.60;;;21.70;76.60;;;;;;5026757;28;20721;-75
2021/06/28 06:34:00;;;;;;;7.32;4.45;;;21.70;77.10;;;;;;5025643;28;20036;-75
2021/06/28 06:36:25;;;;;;;4.70;4.10;;;21.80;77.50;;;;;;5027499;28;20060;-76
2021/06/28 06:38:51;;;;;;;5.18;4.43;;;21.90;77.50;;;;;;5015761;28;20313;-75
2021/06/28 06:41:17;;;;;;;5.63;4.10;;;21.90;76.50;;;;;;5015622;28;20026;-76
2021/06/28 06:43:43;;;;;;;4.32;3.92;;;22.00;75.80;;;;;;5023720;28;20034;-76
2021/06/28 06:46:09;;;;;;;4.55;3.50;;;22.10;74.20;;;;;;5023275;28;20080;-75
2021/06/28 06:48:35;;;;;;;6.03;3.85;;;22.10;72.10;;;;;;5021534;28;20022;-75
2021/06/28 06:51:00;;;;;;;4.50;3.47;;;22.20;71.90;;;;;;5021835;28;20103;-76
2021/06/28 06:53:26;;;;;;;4.25;3.83;;;22.30;70.70;;;;;;5026045;28;20496;-76
2021/06/28 06:55:52;;;;;;;4.22;3.25;;;22.30;70.10;;;;;;5024454;28;20045;-75
2021/06/28 06:58:18;;;;;;;4.15;3.40;;;22.30;69.50;;;;;;5026026;28;20025;-76
2021/06/28 07:00:44;;;;;;;4.55;3.42;;;22.40;70.30;;;;;;5018392;28;20084;-76
2021/06/28 07:03:10;;;;;;;4.43;3.53;;;22.40;70.40;;;;;;5022313;28;20033;-76
2021/06/28 07:05:36;;;;;;;4.38;3.10;;;22.50;69.40;;;;;;5022197;28;20031;-76
2021/06/28 07:08:02;;;;;;;4.70;3.15;;;22.50;70.20;;;;;;5019757;28;20025;-76
2021/06/28 07:10:28;;;;;;;5.20;3.40;;;22.60;69.20;;;;;;5025265;28;20025;-75
2021/06/28 07:12:54;;;;;;;3.92;3.20;;;22.60;70.30;;;;;;5011822;28;20080;-76
2021/06/28 07:15:21;;;;;;;3.42;2.97;;;22.70;70.60;;;;;;5021609;28;20026;-76
2021/06/28 07:17:48;;;;;;;3.60;2.97;;;22.80;69.80;;;;;;5019737;28;20464;-75
2021/06/28 07:20:17;;;;;;;3.55;3.25;;;22.90;71.00;;;;;;5019783;28;20055;-76
2021/06/28 07:22:43;;;;;;;5.97;3.17;;;23.00;67.90;;;;;;5013943;28;20062;-75
2021/06/28 07:25:10;;;;;;;4.97;2.90;;;23.00;69.20;;;;;;5018262;28;20058;-76
2021/06/28 07:27:36;;;;;;;4.97;3.15;;;23.10;68.40;;;;;;5020239;28;20030;-76
2021/06/28 07:30:09;;;;;;;3.35;2.90;;;23.30;69.80;;;;;;5018303;28;20106;-76
2021/06/28 07:32:35;;;;;;;5.78;3.10;;;23.30;67.50;;;;;;5023997;28;20079;-76
2021/06/28 07:35:01;;;;;;;2.70;2.50;;;23.40;68.00;;;;;;5019928;28;20407;-76
2021/06/28 07:37:26;;;;;;;4.00;2.95;;;23.50;67.90;;;;;;5016161;28;20520;-76
2021/06/28 07:39:52;;;;;;;2.90;2.70;;;23.60;68.80;;;;;;5015285;28;20060;-76
2021/06/28 07:42:18;;;;;;;2.90;2.50;;;23.70;67.40;;;;;;5019611;28;20164;-76
2021/06/28 07:44:44;;;;;;;2.80;2.60;;;23.80;65.60;;;;;;5020042;28;20021;-75
2021/06/28 07:47:10;;;;;;;3.03;2.83;;;23.70;65.40;;;;;;5018503;28;20067;-76
2021/06/28 07:49:36;;;;;;;2.67;2.47;;;23.80;64.00;;;;;;5021710;28;20044;-76
2021/06/28 07:52:01;;;;;;;2.85;2.50;;;23.80;62.90;;;;;;5022802;28;21881;-76
2021/06/28 07:54:29;;;;;;;2.97;2.65;;;23.90;64.80;;;;;;5025264;28;20069;-76
2021/06/28 07:56:55;;;;;;;3.17;2.92;;;24.00;64.10;;;;;;5023958;28;20033;-76
2021/06/28 07:59:21;;;;;;;3.05;2.75;;;24.10;65.20;;;;;;5015855;28;20377;-76
2021/06/28 08:01:47;;;;;;;2.58;2.38;;;24.10;61.40;;;;;;5028348;28;20121;-76
2021/06/28 08:04:12;;;;;;;4.68;2.55;;;24.20;62.80;;;;;;5022353;28;20091;-75
2021/06/28 08:06:38;;;;;;;3.15;2.58;;;24.30;62.80;;;;;;5028759;28;20025;-75
2021/06/28 08:09:05;;;;;;;4.43;2.72;;;24.30;64.00;;;;;;5023326;28;20017;-76
2021/06/28 08:11:31;;;;;;;2.92;2.40;;;24.40;63.10;;;;;;5029967;28;20113;-76
2021/06/28 08:14:00;;;;;;;3.42;2.55;;;24.50;62.10;;;;;;5022690;28;20108;-76
2021/06/28 08:16:26;;;;;;;3.20;2.28;;;24.70;63.80;;;;;;5023920;28;20068;-76
2021/06/28 08:18:53;;;;;;;2.67;2.13;;;24.80;60.30;;;;;;5026445;28;20064;-76
2021/06/28 08:21:20;;;;;;;3.25;2.70;;;24.80;61.00;;;;;;5020596;28;20017;-76
2021/06/28 08:23:46;;;;;;;4.53;2.53;;;24.80;60.50;;;;;;5023013;28;20173;-75
2021/06/28 08:26:13;;;;;;;3.25;2.33;;;24.90;61.60;;;;;;5026994;28;20026;-76
2021/06/28 08:28:39;;;;;;;3.08;2.40;;;25.00;59.80;;;;;;5019272;28;20025;-76
2021/06/28 08:31:05;;;;;;;3.22;2.85;;;25.10;59.20;;;;;;5021119;28;20401;-76
2021/06/28 08:33:32;;;;;;;2.50;2.30;;;25.00;60.30;;;;;;5024932;28;20022;-76
2021/06/28 08:35:59;;;;;;;4.05;2.50;;;25.10;62.00;;;;;;5020825;28;20029;-76
2021/06/28 08:38:24;;;;;;;3.28;2.40;;;25.20;57.00;;;;;;5027445;28;20112;-76
2021/06/28 08:40:50;;;;;;;3.55;2.40;;;25.40;58.30;;;;;;5025293;28;21201;-76
2021/06/28 08:43:16;;;;;;;2.70;2.42;;;25.40;57.30;;;;;;5023424;28;20025;-76
2021/06/28 08:45:43;;;;;;;2.78;2.53;;;25.60;59.60;;;;;;5014566;28;20049;-76
2021/06/28 08:48:09;;;;;;;3.78;2.75;;;25.60;57.90;;;;;;5019730;28;20516;-76
2021/06/28 08:50:38;;;;;;;2.58;2.38;;;25.60;59.40;;;;;;5017586;28;20041;-76
2021/06/28 08:53:06;;;;;;;2.90;2.65;;;25.60;58.20;;;;;;5020199;28;20727;-76
2021/06/28 08:55:32;;;;;;;3.08;2.85;;;25.60;58.30;;;;;;5023065;28;20091;-76
2021/06/28 08:57:58;;;;;;;2.40;2.20;;;25.60;60.00;;;;;;5023414;28;20041;-76
2021/06/28 09:00:24;;;;;;;2.70;2.50;;;25.80;57.80;;;;;;5021440;28;20025;-76
2021/06/28 09:03:01;;;;;;;2.55;2.35;;;25.90;60.10;;;;;;5021131;28;20033;-77
2021/06/28 09:05:28;;;;;;;2.63;2.28;;;25.90;56.50;;;;;;5026241;28;20022;-76
2021/06/28 09:08:11;;;;;;;3.50;2.20;;;25.90;55.10;;;;;;5019997;28;20030;-76
2021/06/28 09:10:42;;;;;;;3.35;2.33;;;25.90;55.80;;;;;;5020538;28;20380;-76
2021/06/28 09:13:08;;;;;;;3.05;2.30;;;25.80;55.70;;;;;;5020966;28;20663;-76
2021/06/28 09:15:53;;;;;;;2.50;2.30;;;25.90;55.20;;;;;;5024456;28;20041;-76
2021/06/28 09:18:27;;;;;;;2.30;2.00;;;26.00;54.80;;;;;;5021254;28;20030;-76
2021/06/28 09:21:06;;;;;;;2.40;2.20;;;26.10;52.00;;;;;;5020692;28;20029;-76
2021/06/28 09:23:31;;;;;;;2.38;2.17;;;26.20;51.80;;;;;;5021842;28;20051;-76
2021/06/28 09:25:59;;;;;;;3.22;2.28;;;26.30;52.20;;;;;;5022582;28;20049;-76
2021/06/28 09:28:31;;;;;;;2.42;2.15;;;26.30;50.80;;;;;;5021499;28;20112;-76
2021/06/28 09:30:57;;;;;;;2.50;2.30;;;26.40;56.50;;;;;;5019689;28;20761;-76
2021/06/28 09:33:23;;;;;;;3.53;2.03;;;26.60;52.10;;;;;;5026352;28;20040;-76
2021/06/28 09:35:48;;;;;;;2.38;2.13;;;26.70;52.80;;;;;;5021371;28;20104;-75
2021/06/28 09:38:39;;;;;;;2.85;2.50;;;26.80;53.50;;;;;;5021345;28;20392;-76
2021/06/28 09:41:21;;;;;;;5.00;2.30;;;26.80;55.70;;;;;;5022000;28;20029;-76
2021/06/28 09:43:47;;;;;;;3.10;2.35;;;26.80;50.80;;;;;;5018845;28;20636;-75
2021/06/28 09:46:18;;;;;;;3.08;2.60;;;26.80;51.80;;;;;;5019615;28;20411;-77
2021/06/28 09:48:53;;;;;;;2.53;2.33;;;26.70;51.80;;;;;;5018871;28;20022;-76
2021/06/28 09:51:29;;;;;;;2.50;2.30;;;26.70;52.10;;;;;;5024405;28;20021;-76
2021/06/28 09:54:08;;;;;;;2.25;2.10;;;26.70;53.10;;;;;;5021776;28;20147;-76
2021/06/28 09:56:42;;;;;;;3.58;2.50;;;26.80;53.30;;;;;;5021420;28;20475;-76
2021/06/28 09:59:32;;;;;;;3.67;2.45;;;26.90;53.30;;;;;;5018114;28;20500;-75
2021/06/28 10:02:15;;;;;;;2.50;2.25;;;26.90;53.10;;;;;;5023094;28;20076;-76
2021/06/28 10:04:45;;;;;;;6.03;2.47;;;26.90;51.10;;;;;;5022654;28;20020;-76
2021/06/28 10:07:32;;;;;;;4.15;2.80;;;27.00;51.20;;;;;;5023599;28;20503;-75
2021/06/28 10:10:14;;;;;;;4.30;2.70;;;26.90;52.80;;;;;;5023601;28;20381;-75
2021/06/28 10:12:43;;;;;;;5.30;2.80;;;27.10;53.00;;;;;;5023014;28;20032;-74
2021/06/28 10:15:12;;;;;;;2.47;2.20;;;27.00;52.30;;;;;;5021328;28;20122;-75
2021/06/28 10:17:39;;;;;;;2.70;2.50;;;27.00;54.40;;;;;;5019141;28;20037;-76
2021/06/28 10:20:08;;;;;;;2.67;2.47;;;27.20;58.10;;;;;;5019470;28;20064;-75
2021/06/28 10:22:35;;;;;;;2.50;2.30;;;27.10;51.30;;;;;;5018810;28;20116;-75
2021/06/28 10:25:02;;;;;;;3.07;2.50;;;27.10;52.30;;;;;;5020446;28;20037;-76
2021/06/28 10:27:28;;;;;;;2.28;2.17;;;27.30;52.00;;;;;;5016607;28;20394;-75
2021/06/28 10:29:54;;;;;;;2.70;2.50;;;27.20;56.20;;;;;;5025079;28;20044;-75
2021/06/28 10:32:21;;;;;;;2.60;2.40;;;27.20;53.70;;;;;;5020101;28;20033;-74
2021/06/28 10:34:52;;;;;;;3.53;1.98;;;27.30;53.00;;;;;;5018898;28;20038;-75
2021/06/28 10:37:37;;;;;;;2.83;2.38;;;27.30;50.90;;;;;;5023773;28;20052;-76
2021/06/28 10:40:13;;;;;;;1.98;1.88;;;27.30;50.50;;;;;;5021787;28;21481;-75
2021/06/28 10:42:45;;;;;;;2.53;2.33;;;27.30;49.50;;;;;;5017934;28;20067;-76
2021/06/28 10:45:14;;;;;;;2.15;2.00;;;27.30;52.30;;;;;;5018382;28;20033;-76
2021/06/28 10:48:00;;;;;;;1.98;1.88;;;27.50;51.20;;;;;;5024112;28;20484;-76
2021/06/28 10:50:56;;;;;;;2.53;2.03;;;27.50;51.40;;;;;;5019588;28;20037;-75
2021/06/28 10:53:34;;;;;;;2.40;1.93;;;27.60;49.40;;;;;;5015447;28;20042;-75
2021/06/28 10:56:25;;;;;;;2.00;1.80;;;27.60;47.90;;;;;;5021689;28;20037;-75
2021/06/28 10:59:06;;;;;;;2.45;2.25;;;27.50;51.00;;;;;;5017301;28;20037;-74
2021/06/28 11:01:45;;;;;;;1.98;1.88;;;27.50;47.50;;;;;;5020075;28;20160;-75
2021/06/28 11:04:27;;;;;;;2.80;1.77;;;27.50;45.90;;;;;;5021882;28;20524;-75
2021/06/28 11:06:52;;;;;;;3.17;2.20;;;27.40;48.40;;;;;;5023492;28;20100;-75
2021/06/28 11:09:33;;;;;;;1.83;1.73;;;27.50;48.50;;;;;;5018885;28;20449;-76
2021/06/28 11:11:59;;;;;;;2.00;1.80;;;27.60;47.40;;;;;;5029651;28;20025;-76
2021/06/28 11:14:25;;;;;;;2.40;2.20;;;27.70;51.00;;;;;;5022523;28;20022;-75
2021/06/28 11:16:55;;;;;;;2.72;2.00;;;27.70;47.50;;;;;;5022842;28;20108;-74
2021/06/28 11:19:53;;;;;;;2.75;2.03;;;27.70;50.70;;;;;;5023464;28;20030;-76
2021/06/28 11:22:31;;;;;;;3.80;2.20;;;27.70;47.90;;;;;;5023124;28;20112;-75
2021/06/28 11:24:59;;;;;;;2.35;2.15;;;27.70;49.60;;;;;;5024268;28;20100;-75
2021/06/28 11:27:25;;;;;;;3.63;2.13;;;27.70;51.80;;;;;;5026294;28;20174;-75
2021/06/28 11:29:53;;;;;;;3.28;2.60;;;27.60;51.30;;;;;;5025729;28;20476;-76
2021/06/28 11:32:30;;;;;;;2.60;2.40;;;27.70;53.70;;;;;;5024453;28;20463;-75
2021/06/28 11:34:56;;;;;;;2.60;2.00;;;27.70;51.40;;;;;;5028926;28;20030;-75
2021/06/28 11:37:23;;;;;;;5.13;2.03;;;27.60;52.90;;;;;;5028249;28;20025;-74
2021/06/28 11:40:01;;;;;;;2.00;1.80;;;27.60;51.90;;;;;;5024654;28;20128;-74
2021/06/28 11:42:32;;;;;;;2.80;1.90;;;27.50;49.80;;;;;;5025114;28;20025;-75
2021/06/28 11:45:10;;;;;;;2.55;2.05;;;27.60;47.80;;;;;;5026385;28;20030;-75
2021/06/28 11:47:45;;;;;;;5.03;2.35;;;27.60;48.80;;;;;;5024184;28;20021;-75
2021/06/28 11:50:32;;;;;;;1.90;1.80;;;27.60;46.80;;;;;;5027693;28;20024;-75
2021/06/28 11:53:13;;;;;;;3.20;1.73;;;27.60;46.10;;;;;;5024955;28;20113;-76
2021/06/28 11:55:46;;;;;;;1.70;1.60;;;27.60;49.50;;;;;;5027886;28;20088;-75
2021/06/28 11:58:12;;;;;;;2.20;2.00;;;27.60;45.30;;;;;;5030748;28;20056;-76
2021/06/28 12:00:37;;;;;;;1.88;1.77;;;27.60;46.20;;;;;;5024283;28;20049;-75
2021/06/28 12:03:16;;;;;;;2.00;1.90;;;27.60;49.00;;;;;;5022881;28;20038;-75
2021/06/28 12:05:46;;;;;;;2.03;1.80;;;27.60;46.10;;;;;;5023709;28;20118;-75
2021/06/28 12:08:21;;;;;;;3.95;2.00;;;27.60;49.70;;;;;;5024006;28;20350;-76
2021/06/28 12:10:55;;;;;;;2.17;1.95;;;27.60;49.40;;;;;;5023275;28;20443;-75
2021/06/28 12:13:39;;;;;;;2.10;1.85;;;27.60;46.00;;;;;;5023143;28;20044;-75
2021/06/28 12:16:25;;;;;;;1.95;1.75;;;27.60;46.00;;;;;;5024360;28;20077;-75
2021/06/28 12:19:09;;;;;;;2.10;1.90;;;27.80;48.10;;;;;;5022493;28;20790;-75
2021/06/28 12:21:40;;;;;;;5.78;1.95;;;27.80;44.00;;;;;;5023551;28;20037;-75
2021/06/28 12:24:09;;;;;;;4.65;2.00;;;27.80;48.70;;;;;;5022837;28;21875;-76
2021/06/28 12:26:35;;;;;;;2.00;1.90;;;28.10;44.80;;;;;;5018522;28;20017;-73
2021/06/28 12:29:27;;;;;;;1.85;1.70;;;28.20;46.30;;;;;;5022476;28;20034;-75
2021/06/28 12:32:03;;;;;;;2.35;2.00;;;28.20;46.10;;;;;;5024092;28;20029;-74
2021/06/28 12:34:28;;;;;;;1.77;1.67;;;28.20;45.10;;;;;;5028821;28;20524;-75
2021/06/28 12:36:54;;;;;;;3.00;2.10;;;28.30;48.90;;;;;;5022192;28;20064;-74
2021/06/28 12:39:28;;;;;;;2.83;2.05;;;28.20;45.90;;;;;;5026163;28;20053;-74
2021/06/28 12:42:09;;;;;;;2.13;1.70;;;28.20;46.60;;;;;;5020422;28;20065;-74
2021/06/28 12:44:35;;;;;;;2.97;1.83;;;28.20;44.90;;;;;;5023732;28;20021;-74
2021/06/28 12:47:01;;;;;;;2.53;1.70;;;28.20;47.90;;;;;;5010921;28;20026;-74
2021/06/28 12:49:28;;;;;;;1.77;1.67;;;28.30;48.80;;;;;;5020191;28;20053;-74
2021/06/28 12:52:13;;;;;;;2.13;1.87;;;28.20;47.50;;;;;;5021942;28;20450;-74
2021/06/28 12:54:39;;;;;;;2.60;2.20;;;28.20;47.80;;;;;;5020945;28;20125;-74